Terminal Aerodrome Forecast
Issued by NWS Cleveland, OH

Home | Current Version | Previous Version | Graphics & Text | Print | Product List | Glossary Off
Versions: 1 2 3 4 5 6 7 8 9 10 11 12 13 14 15 16 17 18 19 20 21

000
FTUS41 KCLE 231307 AAA
TAFTOL
TAF AMD
KTOL 231307Z 2313/2412 05010KT 4SM BR OVC003
      TEMPO 2313/2317 2SM -RA BR OVC002
     FM231700 03009KT 1 1/2SM -RA BR OVC003
     FM240100 VRB03KT 1 1/2SM -RA BR OVC003
     FM240900 VRB03KT 1/2SM -DZ FG OVC003=

USA.gov is the U.S. government's official web portal to all federal, state and local government web resources and services.